createdAt,value
2019-02-26T00:04:23.207Z,102735.31
2019-02-26T00:09:28.235Z,102734.10
2019-02-26T00:14:33.356Z,102738.13
2019-02-26T00:19:37.577Z,102724.55
2019-02-26T00:24:42.701Z,102707.39
2019-02-26T00:29:49.213Z,102689.08
2019-02-26T00:34:55.721Z,102692.72
2019-02-26T00:39:59.668Z,102685.87
2019-02-26T00:45:05.803Z,102685.86
2019-02-26T00:50:12.015Z,102692.90
2019-02-26T00:55:16.366Z,102710.27
2019-02-26T01:00:20.804Z,102709.86
2019-02-26T01:05:25.047Z,102715.74
2019-02-26T01:10:29.293Z,102719.95
2019-02-26T01:15:33.530Z,102715.00
2019-02-26T01:20:37.767Z,102720.20
2019-02-26T01:25:42.233Z,102729.41
2019-02-26T01:30:48.911Z,102704.70
2019-02-26T01:35:53.464Z,102709.30
2019-02-26T01:40:58.512Z,102693.27
2019-02-26T01:46:02.741Z,102697.57
2019-02-26T01:51:06.971Z,102699.94
2019-02-26T01:56:11.204Z,102692.64
2019-02-26T02:01:16.797Z,102685.53
2019-02-26T02:06:21.519Z,102695.30
2019-02-26T02:11:28.244Z,102682.59
2019-02-26T02:16:33.507Z,102674.22
2019-02-26T02:21:37.935Z,102674.22
2019-02-26T02:26:45.338Z,102684.33
2019-02-26T02:31:48.119Z,102674.55
2019-02-26T02:36:52.372Z,102657.76
2019-02-26T02:41:56.839Z,102654.95
2019-02-26T02:47:03.347Z,102651.14
2019-02-26T02:52:09.623Z,102668.48
2019-02-26T02:57:13.712Z,102671.48
2019-02-26T03:02:20.446Z,102678.89
2019-02-26T03:07:26.699Z,102683.17
2019-02-26T03:12:29.988Z,102664.52
2019-02-26T03:17:34.203Z,102670.77
2019-02-26T03:22:41.969Z,102662.78
2019-02-26T03:27:44.596Z,102670.93
2019-02-26T03:32:55.698Z,102664.30
2019-02-26T03:37:57.933Z,102668.48
2019-02-26T03:43:01.508Z,102662.01
2019-02-26T03:48:06.769Z,102655.38
2019-02-26T03:53:10.999Z,102661.65
2019-02-26T03:58:15.222Z,102661.99
2019-02-26T04:03:19.954Z,102680.66
2019-02-26T04:08:25.084Z,102670.53
2019-02-26T04:13:30.199Z,102660.11
2019-02-26T04:18:34.935Z,102667.16
2019-02-26T04:23:41.560Z,102653.12
2019-02-26T04:28:57.352Z,102644.55
2019-02-26T04:34:15.232Z,102642.42
2019-02-26T04:39:42.912Z,102639.16
2019-02-26T04:45:22.407Z,102626.35
2019-02-26T04:50:29.568Z,102638.94
2019-02-26T04:55:36.103Z,102641.34
2019-02-26T05:00:38.961Z,102627.48
2019-02-26T05:05:43.184Z,102627.34
2019-02-26T05:10:49.818Z,102630.90
2019-02-26T05:15:53.402Z,102626.45
2019-02-26T05:20:59.305Z,102635.37
2019-02-26T05:26:05.557Z,102630.41
2019-02-26T05:31:12.466Z,102631.30
2019-02-26T05:36:17.245Z,102622.25
2019-02-26T05:41:21.639Z,102609.25
2019-02-26T05:46:27.500Z,102594.92
2019-02-26T05:51:32.673Z,102609.64
2019-02-26T05:56:40.769Z,102624.81
2019-02-26T06:01:46.503Z,102609.64
2019-02-26T06:06:51.075Z,102652.91
2019-02-26T06:11:55.795Z,102654.83
2019-02-26T06:17:00.053Z,102646.76
2019-02-26T06:22:04.266Z,102649.30
2019-02-26T06:27:10.907Z,102639.48
2019-02-26T06:32:15.866Z,102628.65
2019-02-26T06:37:23.504Z,102634.02
2019-02-26T06:42:28.330Z,102632.14
2019-02-26T06:47:33.903Z,102634.06
2019-02-26T06:52:39.935Z,102623.07
2019-02-26T06:57:47.078Z,102628.19
2019-02-26T07:02:50.256Z,102628.02
2019-02-26T07:07:56.937Z,102627.94
2019-02-26T07:13:02.113Z,102631.36
2019-02-26T07:18:07.694Z,102643.94
2019-02-26T07:23:12.919Z,102638.66
2019-02-26T07:28:20.062Z,102646.84
2019-02-26T07:33:24.277Z,102644.32
2019-02-26T07:38:28.518Z,102644.44
2019-02-26T07:43:36.656Z,102642.23
2019-02-26T07:48:38.897Z,102657.22
2019-02-26T07:53:48.482Z,102661.97
2019-02-26T07:58:49.071Z,102676.76
2019-02-26T08:03:53.376Z,102678.48
2019-02-26T08:08:57.614Z,102677.46
2019-02-26T08:14:01.850Z,102673.21
2019-02-26T08:19:06.075Z,102673.97
2019-02-26T08:24:12.370Z,102674.46
2019-02-26T08:29:16.622Z,102676.72
2019-02-26T08:34:20.864Z,102682.34
2019-02-26T08:39:25.111Z,102682.14
2019-02-26T08:44:29.323Z,102677.31
2019-02-26T08:49:35.338Z,102672.26
2019-02-26T08:54:39.490Z,102673.75
2019-02-26T08:59:45.466Z,102668.56
2019-02-26T09:04:49.679Z,102666.92
2019-02-26T09:09:56.874Z,102669.00
2019-02-26T09:14:59.908Z,102665.17
2019-02-26T09:20:09.366Z,102661.95
2019-02-26T09:25:10.607Z,102668.20
2019-02-26T09:30:16.317Z,102687.47
2019-02-26T09:35:26.777Z,102682.06
2019-02-26T09:40:29.126Z,102681.80
2019-02-26T09:45:32.612Z,102699.30
2019-02-26T09:50:38.587Z,102718.02
2019-02-26T09:55:42.798Z,102724.17
2019-02-26T10:00:48.105Z,102724.70
2019-02-26T10:05:55.148Z,102741.31
2019-02-26T10:11:01.678Z,102737.56
2019-02-26T10:16:06.456Z,102746.52
2019-02-26T10:21:12.314Z,102738.31
2019-02-26T10:26:16.881Z,102727.38
2019-02-26T10:31:23.963Z,102729.09
2019-02-26T10:36:30.392Z,102730.42
2019-02-26T10:41:34.839Z,102744.91
2019-02-26T10:46:41.780Z,102751.94
2019-02-26T10:51:45.067Z,102730.43
2019-02-26T10:56:49.300Z,102718.39
2019-02-26T11:01:55.300Z,102725.74
2019-02-26T11:07:01.676Z,102728.17
2019-02-26T11:12:08.326Z,102731.52
2019-02-26T11:17:11.428Z,102728.95
2019-02-26T11:22:18.171Z,102710.46
2019-02-26T11:27:21.627Z,102696.61
2019-02-26T11:32:27.806Z,102689.23
2019-02-26T11:37:32.111Z,102668.64
2019-02-26T11:42:36.390Z,102667.32
2019-02-26T11:47:41.307Z,102665.97
2019-02-26T11:52:46.944Z,102675.55
2019-02-26T11:57:51.202Z,102673.16
2019-02-26T12:02:55.464Z,102679.00
2019-02-26T12:07:59.740Z,102655.52
2019-02-26T12:13:04.102Z,102667.47
2019-02-26T12:18:10.145Z,102668.23
2019-02-26T12:23:16.174Z,102659.12
2019-02-26T12:28:20.406Z,102640.69
2019-02-26T12:33:24.855Z,102639.78
2019-02-26T12:38:29.156Z,102634.31
2019-02-26T12:43:36.460Z,102630.69
2019-02-26T12:48:41.862Z,102642.95
2019-02-26T12:53:47.557Z,102616.48
2019-02-26T12:58:54.545Z,102602.27
2019-02-26T13:03:57.923Z,102594.84
2019-02-26T13:09:02.233Z,102585.83
2019-02-26T13:14:06.484Z,102582.31
2019-02-26T13:19:11.110Z,102592.84
2019-02-26T13:24:17.802Z,102580.32
2019-02-26T13:29:21.346Z,102576.14
2019-02-26T13:34:25.598Z,102581.39
2019-02-26T13:39:38.001Z,102581.32
2019-02-26T13:44:35.884Z,102579.16
2019-02-26T13:49:40.121Z,102588.41
2019-02-26T13:54:44.379Z,102600.88
2019-02-26T13:59:48.882Z,102593.73
2019-02-26T14:04:53.169Z,102585.69
2019-02-26T14:09:57.486Z,102581.29
2019-02-26T14:15:03.694Z,102563.67
2019-02-26T14:20:08.983Z,102570.06
2019-02-26T14:25:13.256Z,102568.73
2019-02-26T14:30:17.376Z,102566.16
2019-02-26T14:35:21.611Z,102574.88
2019-02-26T14:40:25.855Z,102583.19
2019-02-26T14:45:30.078Z,102567.20
2019-02-26T14:50:35.258Z,102583.41
2019-02-26T14:55:39.537Z,102585.83
2019-02-26T15:00:43.782Z,102584.53
2019-02-26T15:05:48.012Z,102587.03
2019-02-26T15:10:52.251Z,102590.19
2019-02-26T15:15:56.492Z,102588.06
2019-02-26T15:21:00.722Z,102597.72
2019-02-26T15:26:04.953Z,102599.75
2019-02-26T15:31:09.245Z,102607.05
2019-02-26T15:36:13.469Z,102601.38
2019-02-26T15:41:17.736Z,102591.11
2019-02-26T15:46:21.992Z,102597.05
2019-02-26T15:51:26.240Z,102597.02
2019-02-26T15:56:30.494Z,102603.63
2019-02-26T16:01:34.753Z,102599.18
2019-02-26T16:06:39.020Z,102598.59
2019-02-26T16:11:43.310Z,102567.64
2019-02-26T16:16:47.676Z,102596.20
2019-02-26T16:21:51.927Z,102602.37
2019-02-26T16:26:56.388Z,102607.19
2019-02-26T16:32:02.657Z,102604.50
2019-02-26T16:37:07.928Z,102604.06
2019-02-26T16:42:12.475Z,102607.13
2019-02-26T16:47:17.475Z,102602.56
2019-02-26T16:52:21.726Z,102599.44
2019-02-26T16:57:28.176Z,102604.35
2019-02-26T17:02:31.999Z,102607.36
2019-02-26T17:07:36.336Z,102601.98
2019-02-26T17:12:40.588Z,102607.03
2019-02-26T17:17:44.827Z,102587.95
2019-02-26T17:22:49.097Z,102596.36
2019-02-26T17:27:53.387Z,102584.05
2019-02-26T17:32:57.648Z,102584.39
2019-02-26T17:38:01.909Z,102583.42
2019-02-26T17:43:06.604Z,102585.92
2019-02-26T17:48:10.857Z,102587.06
2019-02-26T17:53:15.104Z,102588.44
2019-02-26T17:58:19.348Z,102585.46
2019-02-26T18:03:25.626Z,102589.82
2019-02-26T18:08:29.622Z,102601.92
2019-02-26T18:13:33.952Z,102608.66
2019-02-26T18:18:38.215Z,102615.36
2019-02-26T18:23:42.459Z,102616.05
2019-02-26T18:28:47.911Z,102627.09
2019-02-26T18:33:52.648Z,102631.28
2019-02-26T18:38:57.148Z,102628.47
2019-02-26T18:44:09.596Z,102629.46
2019-02-26T18:49:13.848Z,102638.66
2019-02-26T18:54:20.317Z,102647.37
2019-02-26T18:59:24.071Z,102648.22
2019-02-26T19:04:28.359Z,102655.06
2019-02-26T19:09:32.590Z,102647.57
2019-02-26T19:14:36.831Z,102646.72
2019-02-26T19:19:42.014Z,102650.73
2019-02-26T19:24:46.787Z,102639.53
2019-02-26T19:29:51.043Z,102635.70
2019-02-26T19:34:55.270Z,102628.33
2019-02-26T19:39:59.522Z,102638.86
2019-02-26T19:45:08.360Z,102644.86
2019-02-26T19:50:11.857Z,102649.98
2019-02-26T19:55:19.822Z,102633.97
2019-02-26T20:00:24.192Z,102632.48
2019-02-26T20:05:28.525Z,102630.45
2019-02-26T20:10:32.826Z,102618.44
2019-02-26T20:15:37.187Z,102619.75
2019-02-26T20:20:45.688Z,102625.58
2019-02-26T20:25:47.599Z,102617.39
2019-02-26T20:30:51.869Z,102608.58
2019-02-26T20:35:56.163Z,102608.02
2019-02-26T20:41:00.403Z,102608.53
2019-02-26T20:46:04.687Z,102605.37
2019-02-26T20:51:09.021Z,102605.19
2019-02-26T20:56:13.555Z,102611.11
2019-02-26T21:01:17.968Z,102616.80
2019-02-26T21:06:22.232Z,102616.59
2019-02-26T21:11:26.500Z,102612.70
2019-02-26T21:16:30.738Z,102620.70
2019-02-26T21:21:35.836Z,102626.36
2019-02-26T21:26:40.230Z,102621.82
2019-02-26T21:31:44.474Z,102612.14
2019-02-26T21:36:48.724Z,102602.17
2019-02-26T21:41:55.627Z,102603.61
2019-02-26T21:46:58.959Z,102596.94
2019-02-26T21:52:06.649Z,102599.61
2019-02-26T21:57:09.152Z,102605.26
2019-02-26T22:02:13.383Z,102603.67
2019-02-26T22:07:19.076Z,102592.50
2019-02-26T22:12:24.200Z,102595.36
2019-02-26T22:17:29.425Z,102602.08
2019-02-26T22:22:33.636Z,102599.22
2019-02-26T22:27:38.163Z,102592.23
2019-02-26T22:32:42.437Z,102595.09
2019-02-26T22:37:46.661Z,102570.84
2019-02-26T22:42:50.991Z,102587.10
2019-02-26T22:47:55.417Z,102589.06
2019-02-26T22:53:03.769Z,102589.58
2019-02-26T22:58:05.653Z,102580.75
2019-02-26T23:03:10.718Z,102577.70
2019-02-26T23:08:15.936Z,102573.86
2019-02-26T23:13:20.410Z,102576.49
2019-02-26T23:18:24.680Z,102564.66
2019-02-26T23:23:29.475Z,102564.66
2019-02-26T23:28:33.733Z,102561.92
2019-02-26T23:33:37.965Z,102552.75
2019-02-26T23:38:44.189Z,102558.43
2019-02-26T23:43:48.190Z,102556.70
2019-02-26T23:48:52.411Z,102557.49
2019-02-26T23:53:56.647Z,102544.28
2019-02-26T23:59:01.708Z,102541.00
